sensor_id;sensor_type;location;lat;lon;timestamp;P1;durP1;ratioP1;P2;durP2;ratioP2
75035;SDS011;64247;51.540;5.854;2022-12-29T00:01:38;3.30;;;3.00;;
75035;SDS011;64247;51.540;5.854;2022-12-29T00:03:38;3.53;;;3.10;;
75035;SDS011;64247;51.540;5.854;2022-12-29T00:05:39;2.50;;;2.30;;
75035;SDS011;64247;51.540;5.854;2022-12-29T00:07:40;2.92;;;2.72;;
75035;SDS011;64247;51.540;5.854;2022-12-29T00:09:41;2.53;;;2.33;;
75035;SDS011;64247;51.540;5.854;2022-12-29T00:11:42;2.05;;;1.92;;
75035;SDS011;64247;51.540;5.854;2022-12-29T00:13:43;2.45;;;2.25;;
75035;SDS011;64247;51.540;5.854;2022-12-29T00:16:03;2.28;;;2.00;;
75035;SDS011;64247;51.540;5.854;2022-12-29T00:18:07;3.05;;;2.75;;
75035;SDS011;64247;51.540;5.854;2022-12-29T00:20:09;3.85;;;1.88;;
75035;SDS011;64247;51.540;5.854;2022-12-29T00:24:47;3.17;;;2.67;;
75035;SDS011;64247;51.540;5.854;2022-12-29T00:29:49;2.60;;;2.17;;
75035;SDS011;64247;51.540;5.854;2022-12-29T00:32:09;3.28;;;2.67;;
75035;SDS011;64247;51.540;5.854;2022-12-29T00:34:29;3.58;;;3.00;;
75035;SDS011;64247;51.540;5.854;2022-12-29T00:36:48;4.72;;;4.32;;
75035;SDS011;64247;51.540;5.854;2022-12-29T00:38:51;3.30;;;3.00;;
75035;SDS011;64247;51.540;5.854;2022-12-29T00:41:16;3.70;;;3.40;;
75035;SDS011;64247;51.540;5.854;2022-12-29T00:43:35;3.60;;;3.30;;
75035;SDS011;64247;51.540;5.854;2022-12-29T00:47:56;3.80;;;2.65;;
75035;SDS011;64247;51.540;5.854;2022-12-29T00:49:56;3.45;;;3.15;;
75035;SDS011;64247;51.540;5.854;2022-12-29T00:52:02;4.18;;;3.85;;
75035;SDS011;64247;51.540;5.854;2022-12-29T00:54:06;4.45;;;3.38;;
75035;SDS011;64247;51.540;5.854;2022-12-29T00:56:07;3.97;;;3.67;;
75035;SDS011;64247;51.540;5.854;2022-12-29T00:58:08;5.32;;;3.00;;
75035;SDS011;64247;51.540;5.854;2022-12-29T01:00:09;2.72;;;2.47;;
75035;SDS011;64247;51.540;5.854;2022-12-29T01:02:10;2.80;;;2.60;;
75035;SDS011;64247;51.540;5.854;2022-12-29T01:04:11;1.80;;;1.65;;
75035;SDS011;64247;51.540;5.854;2022-12-29T01:06:14;3.10;;;2.42;;
75035;SDS011;64247;51.540;5.854;2022-12-29T01:08:15;2.38;;;2.17;;
75035;SDS011;64247;51.540;5.854;2022-12-29T01:10:15;2.33;;;2.13;;
75035;SDS011;64247;51.540;5.854;2022-12-29T01:12:16;2.70;;;2.50;;
75035;SDS011;64247;51.540;5.854;2022-12-29T01:14:38;2.70;;;2.30;;
75035;SDS011;64247;51.540;5.854;2022-12-29T01:16:39;3.17;;;2.45;;
75035;SDS011;64247;51.540;5.854;2022-12-29T01:18:40;3.90;;;2.47;;
75035;SDS011;64247;51.540;5.854;2022-12-29T01:20:41;2.22;;;2.10;;
75035;SDS011;64247;51.540;5.854;2022-12-29T01:22:42;3.28;;;1.63;;
75035;SDS011;64247;51.540;5.854;2022-12-29T01:24:43;1.42;;;1.33;;
75035;SDS011;64247;51.540;5.854;2022-12-29T01:26:47;1.92;;;1.60;;
75035;SDS011;64247;51.540;5.854;2022-12-29T01:28:50;2.03;;;1.40;;
75035;SDS011;64247;51.540;5.854;2022-12-29T01:30:51;1.45;;;1.15;;
75035;SDS011;64247;51.540;5.854;2022-12-29T01:32:52;1.83;;;1.20;;
75035;SDS011;64247;51.540;5.854;2022-12-29T01:34:53;1.30;;;1.20;;
75035;SDS011;64247;51.540;5.854;2022-12-29T01:36:54;1.30;;;1.20;;
75035;SDS011;64247;51.540;5.854;2022-12-29T01:38:55;1.05;;;0.80;;
75035;SDS011;64247;51.540;5.854;2022-12-29T01:40:56;0.80;;;0.80;;
75035;SDS011;64247;51.540;5.854;2022-12-29T01:42:57;1.27;;;0.82;;
75035;SDS011;64247;51.540;5.854;2022-12-29T01:45:03;1.30;;;1.17;;
75035;SDS011;64247;51.540;5.854;2022-12-29T01:47:17;3.85;;;1.00;;
75035;SDS011;64247;51.540;5.854;2022-12-29T01:49:29;2.15;;;0.95;;
75035;SDS011;64247;51.540;5.854;2022-12-29T01:51:31;0.93;;;0.63;;
75035;SDS011;64247;51.540;5.854;2022-12-29T01:53:38;2.10;;;1.02;;
75035;SDS011;64247;51.540;5.854;2022-12-29T01:55:40;0.85;;;0.68;;
75035;SDS011;64247;51.540;5.854;2022-12-29T01:58:04;1.02;;;0.90;;
75035;SDS011;64247;51.540;5.854;2022-12-29T02:00:08;2.55;;;0.95;;
75035;SDS011;64247;51.540;5.854;2022-12-29T02:02:15;1.70;;;0.90;;
75035;SDS011;64247;51.540;5.854;2022-12-29T02:04:16;1.35;;;0.85;;
75035;SDS011;64247;51.540;5.854;2022-12-29T02:06:22;0.40;;;0.40;;
75035;SDS011;64247;51.540;5.854;2022-12-29T02:08:30;1.00;;;0.80;;
75035;SDS011;64247;51.540;5.854;2022-12-29T02:10:33;0.80;;;0.65;;
75035;SDS011;64247;51.540;5.854;2022-12-29T02:12:36;1.73;;;0.93;;
75035;SDS011;64247;51.540;5.854;2022-12-29T02:14:37;1.35;;;0.85;;
75035;SDS011;64247;51.540;5.854;2022-12-29T02:25:42;0.70;;;0.63;;
75035;SDS011;64247;51.540;5.854;2022-12-29T02:29:29;2.15;;;0.90;;
75035;SDS011;64247;51.540;5.854;2022-12-29T02:32:02;1.70;;;1.00;;
75035;SDS011;64247;51.540;5.854;2022-12-29T02:37:03;1.42;;;0.70;;
75035;SDS011;64247;51.540;5.854;2022-12-29T02:39:25;2.20;;;0.90;;
75035;SDS011;64247;51.540;5.854;2022-12-29T02:42:07;1.63;;;1.10;;
75035;SDS011;64247;51.540;5.854;2022-12-29T02:45:08;1.38;;;0.80;;
75035;SDS011;64247;51.540;5.854;2022-12-29T02:51:51;2.33;;;1.00;;
75035;SDS011;64247;51.540;5.854;2022-12-29T02:55:02;1.67;;;0.98;;
75035;SDS011;64247;51.540;5.854;2022-12-29T02:57:09;0.93;;;0.80;;
75035;SDS011;64247;51.540;5.854;2022-12-29T02:59:33;1.58;;;0.60;;
75035;SDS011;64247;51.540;5.854;2022-12-29T03:04:43;0.40;;;0.40;;
75035;SDS011;64247;51.540;5.854;2022-12-29T03:07:29;2.58;;;1.00;;
75035;SDS011;64247;51.540;5.854;2022-12-29T03:10:04;4.03;;;1.27;;
75035;SDS011;64247;51.540;5.854;2022-12-29T03:16:15;1.50;;;0.70;;
75035;SDS011;64247;51.540;5.854;2022-12-29T03:18:48;2.42;;;0.75;;
75035;SDS011;64247;51.540;5.854;2022-12-29T03:22:17;4.30;;;1.25;;
75035;SDS011;64247;51.540;5.854;2022-12-29T03:24:42;1.98;;;0.82;;
75035;SDS011;64247;51.540;5.854;2022-12-29T03:26:53;1.95;;;0.80;;
75035;SDS011;64247;51.540;5.854;2022-12-29T03:29:01;0.98;;;0.88;;
75035;SDS011;64247;51.540;5.854;2022-12-29T03:31:03;0.82;;;0.63;;
75035;SDS011;64247;51.540;5.854;2022-12-29T03:33:09;1.70;;;0.73;;
75035;SDS011;64247;51.540;5.854;2022-12-29T03:35:15;2.65;;;0.70;;
75035;SDS011;64247;51.540;5.854;2022-12-29T03:39:28;1.00;;;0.90;;
75035;SDS011;64247;51.540;5.854;2022-12-29T03:41:30;1.77;;;0.90;;
75035;SDS011;64247;51.540;5.854;2022-12-29T03:43:36;2.58;;;0.82;;
75035;SDS011;64247;51.540;5.854;2022-12-29T03:45:38;1.95;;;1.00;;
75035;SDS011;64247;51.540;5.854;2022-12-29T03:47:39;1.83;;;0.40;;
75035;SDS011;64247;51.540;5.854;2022-12-29T03:49:40;1.23;;;0.80;;
75035;SDS011;64247;51.540;5.854;2022-12-29T03:51:42;1.08;;;0.50;;
75035;SDS011;64247;51.540;5.854;2022-12-29T03:53:43;2.40;;;0.70;;
75035;SDS011;64247;51.540;5.854;2022-12-29T03:55:44;2.75;;;0.65;;
75035;SDS011;64247;51.540;5.854;2022-12-29T03:57:45;0.63;;;0.40;;
75035;SDS011;64247;51.540;5.854;2022-12-29T03:59:51;2.15;;;0.80;;
75035;SDS011;64247;51.540;5.854;2022-12-29T04:01:52;3.42;;;0.60;;
75035;SDS011;64247;51.540;5.854;2022-12-29T04:03:53;0.80;;;0.38;;
75035;SDS011;64247;51.540;5.854;2022-12-29T04:05:54;0.90;;;0.63;;
75035;SDS011;64247;51.540;5.854;2022-12-29T04:07:55;1.58;;;0.57;;
75035;SDS011;64247;51.540;5.854;2022-12-29T04:09:57;1.42;;;0.50;;
75035;SDS011;64247;51.540;5.854;2022-12-29T04:12:00;1.50;;;0.30;;
75035;SDS011;64247;51.540;5.854;2022-12-29T04:14:01;3.00;;;0.60;;
75035;SDS011;64247;51.540;5.854;2022-12-29T04:16:04;0.88;;;0.52;;
75035;SDS011;64247;51.540;5.854;2022-12-29T04:18:06;0.73;;;0.30;;
75035;SDS011;64247;51.540;5.854;2022-12-29T04:20:08;0.85;;;0.22;;
75035;SDS011;64247;51.540;5.854;2022-12-29T04:22:29;1.25;;;0.40;;
75035;SDS011;64247;51.540;5.854;2022-12-29T04:24:30;3.25;;;0.70;;
75035;SDS011;64247;51.540;5.854;2022-12-29T04:26:31;0.77;;;0.40;;
75035;SDS011;64247;51.540;5.854;2022-12-29T04:28:58;5.32;;;0.47;;
75035;SDS011;64247;51.540;5.854;2022-12-29T04:31:07;1.08;;;0.52;;
75035;SDS011;64247;51.540;5.854;2022-12-29T04:33:11;1.05;;;0.32;;
75035;SDS011;64247;51.540;5.854;2022-12-29T04:35:14;0.43;;;0.43;;
75035;SDS011;64247;51.540;5.854;2022-12-29T04:37:15;1.58;;;0.65;;
75035;SDS011;64247;51.540;5.854;2022-12-29T04:39:16;1.25;;;0.57;;
75035;SDS011;64247;51.540;5.854;2022-12-29T04:41:17;2.22;;;0.77;;
75035;SDS011;64247;51.540;5.854;2022-12-29T04:43:18;2.58;;;0.60;;
75035;SDS011;64247;51.540;5.854;2022-12-29T04:45:38;4.05;;;0.88;;
75035;SDS011;64247;51.540;5.854;2022-12-29T04:47:56;0.40;;;0.30;;
75035;SDS011;64247;51.540;5.854;2022-12-29T04:50:16;2.47;;;0.70;;
75035;SDS011;64247;51.540;5.854;2022-12-29T04:52:24;5.22;;;0.98;;
75035;SDS011;64247;51.540;5.854;2022-12-29T04:54:26;1.77;;;0.50;;
75035;SDS011;64247;51.540;5.854;2022-12-29T04:56:40;4.18;;;1.10;;
75035;SDS011;64247;51.540;5.854;2022-12-29T04:58:41;1.33;;;0.60;;
75035;SDS011;64247;51.540;5.854;2022-12-29T05:00:42;7.63;;;1.33;;
75035;SDS011;64247;51.540;5.854;2022-12-29T05:02:43;4.40;;;1.00;;
75035;SDS011;64247;51.540;5.854;2022-12-29T05:04:45;2.40;;;1.08;;
75035;SDS011;64247;51.540;5.854;2022-12-29T05:06:47;1.88;;;0.70;;
75035;SDS011;64247;51.540;5.854;2022-12-29T05:08:48;1.73;;;0.85;;
75035;SDS011;64247;51.540;5.854;2022-12-29T05:10:52;3.72;;;0.90;;
75035;SDS011;64247;51.540;5.854;2022-12-29T05:12:54;1.25;;;0.50;;
75035;SDS011;64247;51.540;5.854;2022-12-29T05:14:55;2.53;;;0.30;;
75035;SDS011;64247;51.540;5.854;2022-12-29T05:16:56;0.95;;;0.47;;
75035;SDS011;64247;51.540;5.854;2022-12-29T05:18:57;3.00;;;1.13;;
75035;SDS011;64247;51.540;5.854;2022-12-29T05:20:58;1.02;;;0.45;;
75035;SDS011;64247;51.540;5.854;2022-12-29T05:22:59;2.60;;;0.70;;
75035;SDS011;64247;51.540;5.854;2022-12-29T05:24:59;3.00;;;0.70;;
75035;SDS011;64247;51.540;5.854;2022-12-29T05:27:01;3.03;;;0.80;;
75035;SDS011;64247;51.540;5.854;2022-12-29T05:29:18;1.55;;;0.68;;
75035;SDS011;64247;51.540;5.854;2022-12-29T05:31:19;2.50;;;0.70;;
75035;SDS011;64247;51.540;5.854;2022-12-29T05:33:21;1.88;;;0.63;;
75035;SDS011;64247;51.540;5.854;2022-12-29T05:35:24;2.17;;;0.60;;
75035;SDS011;64247;51.540;5.854;2022-12-29T05:37:25;1.17;;;0.55;;
75035;SDS011;64247;51.540;5.854;2022-12-29T05:39:26;0.52;;;0.30;;
75035;SDS011;64247;51.540;5.854;2022-12-29T05:41:30;1.55;;;0.50;;
75035;SDS011;64247;51.540;5.854;2022-12-29T05:43:54;4.28;;;0.57;;
75035;SDS011;64247;51.540;5.854;2022-12-29T05:46:14;3.55;;;0.93;;
75035;SDS011;64247;51.540;5.854;2022-12-29T05:48:31;1.58;;;0.50;;
75035;SDS011;64247;51.540;5.854;2022-12-29T05:50:51;3.40;;;0.60;;
75035;SDS011;64247;51.540;5.854;2022-12-29T05:52:58;2.00;;;0.95;;
75035;SDS011;64247;51.540;5.854;2022-12-29T05:54:59;3.70;;;0.80;;
75035;SDS011;64247;51.540;5.854;2022-12-29T05:57:01;3.03;;;0.60;;
75035;SDS011;64247;51.540;5.854;2022-12-29T05:59:03;2.67;;;0.95;;
75035;SDS011;64247;51.540;5.854;2022-12-29T06:01:04;1.73;;;0.47;;
75035;SDS011;64247;51.540;5.854;2022-12-29T06:03:05;2.72;;;0.77;;
75035;SDS011;64247;51.540;5.854;2022-12-29T06:05:06;3.85;;;1.02;;
75035;SDS011;64247;51.540;5.854;2022-12-29T06:07:09;3.83;;;0.60;;
75035;SDS011;64247;51.540;5.854;2022-12-29T06:09:19;2.22;;;1.00;;
75035;SDS011;64247;51.540;5.854;2022-12-29T06:11:19;1.23;;;0.60;;
75035;SDS011;64247;51.540;5.854;2022-12-29T06:13:28;2.80;;;1.38;;
75035;SDS011;64247;51.540;5.854;2022-12-29T06:15:31;1.98;;;0.43;;
75035;SDS011;64247;51.540;5.854;2022-12-29T06:17:33;3.45;;;0.82;;
75035;SDS011;64247;51.540;5.854;2022-12-29T06:19:34;3.53;;;0.57;;
75035;SDS011;64247;51.540;5.854;2022-12-29T06:21:36;1.70;;;0.55;;
75035;SDS011;64247;51.540;5.854;2022-12-29T06:23:38;2.88;;;0.82;;
75035;SDS011;64247;51.540;5.854;2022-12-29T06:25:39;4.57;;;1.13;;
75035;SDS011;64247;51.540;5.854;2022-12-29T06:27:40;1.40;;;0.57;;
75035;SDS011;64247;51.540;5.854;2022-12-29T06:29:41;4.78;;;0.80;;
75035;SDS011;64247;51.540;5.854;2022-12-29T06:31:43;2.40;;;0.65;;
75035;SDS011;64247;51.540;5.854;2022-12-29T06:33:48;4.78;;;0.93;;
75035;SDS011;64247;51.540;5.854;2022-12-29T06:35:49;2.40;;;0.73;;
75035;SDS011;64247;51.540;5.854;2022-12-29T06:37:50;2.53;;;0.82;;
75035;SDS011;64247;51.540;5.854;2022-12-29T06:39:51;1.48;;;0.60;;
75035;SDS011;64247;51.540;5.854;2022-12-29T06:41:53;2.30;;;0.63;;
75035;SDS011;64247;51.540;5.854;2022-12-29T06:44:17;3.50;;;0.73;;
75035;SDS011;64247;51.540;5.854;2022-12-29T06:46:34;2.67;;;0.70;;
75035;SDS011;64247;51.540;5.854;2022-12-29T06:48:35;2.83;;;0.38;;
75035;SDS011;64247;51.540;5.854;2022-12-29T06:50:36;3.28;;;1.05;;
75035;SDS011;64247;51.540;5.854;2022-12-29T06:52:37;2.28;;;0.80;;
75035;SDS011;64247;51.540;5.854;2022-12-29T06:54:38;2.42;;;0.90;;
75035;SDS011;64247;51.540;5.854;2022-12-29T06:56:39;4.55;;;1.08;;
75035;SDS011;64247;51.540;5.854;2022-12-29T06:58:40;2.08;;;0.75;;
75035;SDS011;64247;51.540;5.854;2022-12-29T07:00:41;3.75;;;1.10;;
75035;SDS011;64247;51.540;5.854;2022-12-29T07:02:42;2.70;;;0.75;;
75035;SDS011;64247;51.540;5.854;2022-12-29T07:04:42;4.05;;;0.90;;
75035;SDS011;64247;51.540;5.854;2022-12-29T07:06:43;1.23;;;0.80;;
75035;SDS011;64247;51.540;5.854;2022-12-29T07:08:44;3.38;;;0.85;;
75035;SDS011;64247;51.540;5.854;2022-12-29T07:10:45;2.75;;;0.88;;
75035;SDS011;64247;51.540;5.854;2022-12-29T07:12:46;3.42;;;0.68;;
75035;SDS011;64247;51.540;5.854;2022-12-29T07:14:47;3.28;;;1.10;;
75035;SDS011;64247;51.540;5.854;2022-12-29T07:16:48;1.95;;;0.93;;
75035;SDS011;64247;51.540;5.854;2022-12-29T07:18:49;3.85;;;0.85;;
75035;SDS011;64247;51.540;5.854;2022-12-29T07:20:51;5.05;;;0.90;;
75035;SDS011;64247;51.540;5.854;2022-12-29T07:22:52;6.03;;;1.25;;
75035;SDS011;64247;51.540;5.854;2022-12-29T07:24:54;5.40;;;1.50;;
75035;SDS011;64247;51.540;5.854;2022-12-29T07:26:55;0.93;;;0.43;;
75035;SDS011;64247;51.540;5.854;2022-12-29T07:28:55;4.07;;;0.75;;
75035;SDS011;64247;51.540;5.854;2022-12-29T07:30:56;4.80;;;1.02;;
75035;SDS011;64247;51.540;5.854;2022-12-29T07:32:57;2.28;;;0.70;;
75035;SDS011;64247;51.540;5.854;2022-12-29T07:34:58;5.18;;;1.25;;
75035;SDS011;64247;51.540;5.854;2022-12-29T07:36:59;2.67;;;1.08;;
75035;SDS011;64247;51.540;5.854;2022-12-29T07:39:00;5.10;;;1.25;;
75035;SDS011;64247;51.540;5.854;2022-12-29T07:41:02;4.97;;;1.10;;
75035;SDS011;64247;51.540;5.854;2022-12-29T07:43:03;2.42;;;1.10;;
75035;SDS011;64247;51.540;5.854;2022-12-29T07:45:10;3.55;;;1.25;;
75035;SDS011;64247;51.540;5.854;2022-12-29T07:47:30;7.43;;;1.60;;
75035;SDS011;64247;51.540;5.854;2022-12-29T07:49:31;5.93;;;0.85;;
75035;SDS011;64247;51.540;5.854;2022-12-29T07:51:32;4.40;;;1.00;;
75035;SDS011;64247;51.540;5.854;2022-12-29T07:53:32;5.85;;;0.98;;
75035;SDS011;64247;51.540;5.854;2022-12-29T07:55:33;7.20;;;1.60;;
75035;SDS011;64247;51.540;5.854;2022-12-29T07:57:34;4.25;;;1.00;;
75035;SDS011;64247;51.540;5.854;2022-12-29T07:59:35;5.53;;;0.95;;
75035;SDS011;64247;51.540;5.854;2022-12-29T08:01:36;4.90;;;1.50;;
75035;SDS011;64247;51.540;5.854;2022-12-29T08:03:37;2.83;;;0.90;;
75035;SDS011;64247;51.540;5.854;2022-12-29T08:05:39;6.70;;;1.35;;
75035;SDS011;64247;51.540;5.854;2022-12-29T08:07:43;5.35;;;1.65;;
75035;SDS011;64247;51.540;5.854;2022-12-29T08:09:45;2.45;;;1.05;;
75035;SDS011;64247;51.540;5.854;2022-12-29T08:11:46;4.10;;;1.27;;
75035;SDS011;64247;51.540;5.854;2022-12-29T08:13:47;3.25;;;1.55;;
75035;SDS011;64247;51.540;5.854;2022-12-29T08:15:48;6.75;;;1.65;;
75035;SDS011;64247;51.540;5.854;2022-12-29T08:17:49;4.75;;;0.85;;
75035;SDS011;64247;51.540;5.854;2022-12-29T08:19:49;6.85;;;1.48;;
75035;SDS011;64247;51.540;5.854;2022-12-29T08:21:50;3.38;;;0.77;;
75035;SDS011;64247;51.540;5.854;2022-12-29T08:23:53;7.78;;;1.38;;
75035;SDS011;64247;51.540;5.854;2022-12-29T08:25:58;2.55;;;0.77;;
75035;SDS011;64247;51.540;5.854;2022-12-29T08:28:04;6.53;;;1.40;;
75035;SDS011;64247;51.540;5.854;2022-12-29T08:30:06;1.38;;;0.52;;
75035;SDS011;64247;51.540;5.854;2022-12-29T08:32:08;5.22;;;1.45;;
75035;SDS011;64247;51.540;5.854;2022-12-29T08:34:09;6.22;;;1.02;;
75035;SDS011;64247;51.540;5.854;2022-12-29T08:36:10;5.80;;;1.17;;
75035;SDS011;64247;51.540;5.854;2022-12-29T08:38:11;3.33;;;1.70;;
75035;SDS011;64247;51.540;5.854;2022-12-29T08:40:12;4.63;;;1.50;;
75035;SDS011;64247;51.540;5.854;2022-12-29T08:42:14;2.10;;;0.80;;
75035;SDS011;64247;51.540;5.854;2022-12-29T08:44:16;3.70;;;1.25;;
75035;SDS011;64247;51.540;5.854;2022-12-29T08:46:17;4.93;;;1.55;;
75035;SDS011;64247;51.540;5.854;2022-12-29T08:48:18;4.97;;;1.05;;
75035;SDS011;64247;51.540;5.854;2022-12-29T08:50:22;4.45;;;1.20;;
75035;SDS011;64247;51.540;5.854;2022-12-29T08:52:23;3.63;;;1.25;;
75035;SDS011;64247;51.540;5.854;2022-12-29T08:54:23;6.20;;;1.00;;
75035;SDS011;64247;51.540;5.854;2022-12-29T08:56:25;4.47;;;1.02;;
75035;SDS011;64247;51.540;5.854;2022-12-29T08:58:30;5.45;;;1.20;;
75035;SDS011;64247;51.540;5.854;2022-12-29T09:00:31;5.32;;;1.58;;
75035;SDS011;64247;51.540;5.854;2022-12-29T09:02:32;4.32;;;1.25;;
75035;SDS011;64247;51.540;5.854;2022-12-29T09:04:33;6.07;;;1.58;;
75035;SDS011;64247;51.540;5.854;2022-12-29T09:06:34;7.90;;;2.13;;
75035;SDS011;64247;51.540;5.854;2022-12-29T09:08:36;4.00;;;0.98;;
75035;SDS011;64247;51.540;5.854;2022-12-29T09:10:37;6.15;;;1.35;;
75035;SDS011;64247;51.540;5.854;2022-12-29T09:12:38;3.42;;;0.93;;
75035;SDS011;64247;51.540;5.854;2022-12-29T09:14:39;4.13;;;1.30;;
75035;SDS011;64247;51.540;5.854;2022-12-29T09:16:40;4.90;;;1.20;;
75035;SDS011;64247;51.540;5.854;2022-12-29T09:19:00;9.73;;;1.60;;
75035;SDS011;64247;51.540;5.854;2022-12-29T09:21:02;5.15;;;1.30;;
75035;SDS011;64247;51.540;5.854;2022-12-29T09:23:05;4.00;;;1.20;;
75035;SDS011;64247;51.540;5.854;2022-12-29T09:25:06;3.78;;;1.13;;
75035;SDS011;64247;51.540;5.854;2022-12-29T09:27:09;3.72;;;1.02;;
75035;SDS011;64247;51.540;5.854;2022-12-29T09:29:10;6.93;;;2.38;;
75035;SDS011;64247;51.540;5.854;2022-12-29T09:31:11;1.90;;;0.88;;
75035;SDS011;64247;51.540;5.854;2022-12-29T09:33:12;5.35;;;1.38;;
75035;SDS011;64247;51.540;5.854;2022-12-29T09:35:14;4.72;;;1.08;;
75035;SDS011;64247;51.540;5.854;2022-12-29T09:37:17;3.83;;;0.88;;
75035;SDS011;64247;51.540;5.854;2022-12-29T09:39:17;10.52;;;1.67;;
75035;SDS011;64247;51.540;5.854;2022-12-29T09:41:26;4.57;;;1.20;;
75035;SDS011;64247;51.540;5.854;2022-12-29T09:46:37;6.57;;;1.92;;
75035;SDS011;64247;51.540;5.854;2022-12-29T09:48:44;5.28;;;1.55;;
75035;SDS011;64247;51.540;5.854;2022-12-29T09:50:52;4.47;;;1.02;;
75035;SDS011;64247;51.540;5.854;2022-12-29T09:55:41;4.40;;;1.00;;
75035;SDS011;64247;51.540;5.854;2022-12-29T09:57:56;3.33;;;1.23;;
75035;SDS011;64247;51.540;5.854;2022-12-29T10:00:12;3.28;;;1.38;;
75035;SDS011;64247;51.540;5.854;2022-12-29T10:08:47;6.43;;;1.20;;
75035;SDS011;64247;51.540;5.854;2022-12-29T10:17:48;5.47;;;1.30;;
75035;SDS011;64247;51.540;5.854;2022-12-29T10:26:04;2.55;;;1.13;;
75035;SDS011;64247;51.540;5.854;2022-12-29T10:28:17;5.90;;;1.98;;
75035;SDS011;64247;51.540;5.854;2022-12-29T10:30:23;4.38;;;1.23;;
75035;SDS011;64247;51.540;5.854;2022-12-29T10:32:26;3.42;;;1.20;;
75035;SDS011;64247;51.540;5.854;2022-12-29T10:34:56;4.22;;;1.15;;
75035;SDS011;64247;51.540;5.854;2022-12-29T10:37:34;4.47;;;1.67;;
75035;SDS011;64247;51.540;5.854;2022-12-29T10:39:49;5.57;;;1.15;;
75035;SDS011;64247;51.540;5.854;2022-12-29T10:44:38;9.77;;;2.00;;
75035;SDS011;64247;51.540;5.854;2022-12-29T10:46:40;3.55;;;1.00;;
75035;SDS011;64247;51.540;5.854;2022-12-29T10:48:44;4.63;;;1.50;;
75035;SDS011;64247;51.540;5.854;2022-12-29T10:50:47;2.25;;;0.47;;
75035;SDS011;64247;51.540;5.854;2022-12-29T10:52:51;2.28;;;1.08;;
75035;SDS011;64247;51.540;5.854;2022-12-29T10:55:14;3.17;;;1.10;;
75035;SDS011;64247;51.540;5.854;2022-12-29T10:59:49;4.85;;;1.40;;
75035;SDS011;64247;51.540;5.854;2022-12-29T11:07:49;3.92;;;1.45;;
75035;SDS011;64247;51.540;5.854;2022-12-29T11:09:54;7.20;;;1.55;;
75035;SDS011;64247;51.540;5.854;2022-12-29T11:11:55;5.15;;;1.30;;
75035;SDS011;64247;51.540;5.854;2022-12-29T11:13:57;4.50;;;1.50;;
75035;SDS011;64247;51.540;5.854;2022-12-29T11:16:30;9.75;;;1.58;;
75035;SDS011;64247;51.540;5.854;2022-12-29T11:18:36;5.97;;;1.02;;
75035;SDS011;64247;51.540;5.854;2022-12-29T11:20:40;3.28;;;1.58;;
75035;SDS011;64247;51.540;5.854;2022-12-29T11:22:43;2.95;;;0.77;;
75035;SDS011;64247;51.540;5.854;2022-12-29T11:24:46;4.13;;;1.60;;
75035;SDS011;64247;51.540;5.854;2022-12-29T11:26:53;5.50;;;1.15;;
75035;SDS011;64247;51.540;5.854;2022-12-29T11:31:45;6.25;;;1.08;;
75035;SDS011;64247;51.540;5.854;2022-12-29T11:33:49;7.20;;;1.58;;
75035;SDS011;64247;51.540;5.854;2022-12-29T11:35:50;5.05;;;1.13;;
75035;SDS011;64247;51.540;5.854;2022-12-29T11:37:57;6.50;;;1.60;;
75035;SDS011;64247;51.540;5.854;2022-12-29T11:40:03;3.42;;;1.13;;
75035;SDS011;64247;51.540;5.854;2022-12-29T11:42:22;3.42;;;1.23;;
75035;SDS011;64247;51.540;5.854;2022-12-29T11:44:38;1.90;;;0.60;;
75035;SDS011;64247;51.540;5.854;2022-12-29T11:46:48;4.32;;;1.48;;
75035;SDS011;64247;51.540;5.854;2022-12-29T11:48:52;7.22;;;1.50;;
75035;SDS011;64247;51.540;5.854;2022-12-29T11:50:54;5.93;;;1.42;;
75035;SDS011;64247;51.540;5.854;2022-12-29T11:53:03;4.38;;;1.38;;
75035;SDS011;64247;51.540;5.854;2022-12-29T11:55:25;5.53;;;1.30;;
75035;SDS011;64247;51.540;5.854;2022-12-29T11:57:29;6.30;;;1.70;;
75035;SDS011;64247;51.540;5.854;2022-12-29T11:59:38;3.92;;;1.10;;
75035;SDS011;64247;51.540;5.854;2022-12-29T12:04:51;2.83;;;1.48;;
75035;SDS011;64247;51.540;5.854;2022-12-29T12:07:28;11.02;;;2.17;;
75035;SDS011;64247;51.540;5.854;2022-12-29T12:09:51;5.38;;;1.40;;
75035;SDS011;64247;51.540;5.854;2022-12-29T12:11:59;6.70;;;1.45;;
75035;SDS011;64247;51.540;5.854;2022-12-29T12:14:14;4.40;;;1.08;;
75035;SDS011;64247;51.540;5.854;2022-12-29T12:22:31;7.13;;;1.80;;
75035;SDS011;64247;51.540;5.854;2022-12-29T12:30:36;5.00;;;1.50;;
75035;SDS011;64247;51.540;5.854;2022-12-29T12:39:47;10.18;;;1.77;;
75035;SDS011;64247;51.540;5.854;2022-12-29T12:55:01;5.93;;;1.80;;
75035;SDS011;64247;51.540;5.854;2022-12-29T13:04:48;4.78;;;0.90;;
75035;SDS011;64247;51.540;5.854;2022-12-29T13:16:26;3.67;;;1.00;;
75035;SDS011;64247;51.540;5.854;2022-12-29T13:25:48;3.05;;;0.77;;
75035;SDS011;64247;51.540;5.854;2022-12-29T13:35:32;4.28;;;1.10;;
75035;SDS011;64247;51.540;5.854;2022-12-29T13:41:04;6.10;;;1.02;;
75035;SDS011;64247;51.540;5.854;2022-12-29T13:43:14;3.22;;;0.70;;
75035;SDS011;64247;51.540;5.854;2022-12-29T13:45:22;3.42;;;1.00;;
75035;SDS011;64247;51.540;5.854;2022-12-29T13:50:17;3.80;;;1.02;;
75035;SDS011;64247;51.540;5.854;2022-12-29T13:52:34;4.85;;;1.42;;
75035;SDS011;64247;51.540;5.854;2022-12-29T13:57:40;4.82;;;1.35;;
75035;SDS011;64247;51.540;5.854;2022-12-29T14:05:45;6.47;;;1.23;;
75035;SDS011;64247;51.540;5.854;2022-12-29T14:08:27;3.35;;;1.00;;
75035;SDS011;64247;51.540;5.854;2022-12-29T14:10:32;3.70;;;1.33;;
75035;SDS011;64247;51.540;5.854;2022-12-29T14:12:45;4.63;;;1.48;;
75035;SDS011;64247;51.540;5.854;2022-12-29T14:14:48;7.65;;;1.70;;
75035;SDS011;64247;51.540;5.854;2022-12-29T14:16:51;7.90;;;1.33;;
75035;SDS011;64247;51.540;5.854;2022-12-29T14:19:19;5.25;;;1.13;;
75035;SDS011;64247;51.540;5.854;2022-12-29T14:21:29;2.83;;;1.05;;
75035;SDS011;64247;51.540;5.854;2022-12-29T14:28:50;4.82;;;1.02;;
75035;SDS011;64247;51.540;5.854;2022-12-29T14:30:52;9.27;;;2.03;;
75035;SDS011;64247;51.540;5.854;2022-12-29T14:33:03;6.72;;;1.23;;
75035;SDS011;64247;51.540;5.854;2022-12-29T14:37:43;6.70;;;1.33;;
75035;SDS011;64247;51.540;5.854;2022-12-29T14:39:44;5.55;;;1.40;;
75035;SDS011;64247;51.540;5.854;2022-12-29T14:41:46;5.97;;;0.82;;
75035;SDS011;64247;51.540;5.854;2022-12-29T14:44:20;3.83;;;2.15;;
75035;SDS011;64247;51.540;5.854;2022-12-29T14:46:19;4.18;;;1.05;;
75035;SDS011;64247;51.540;5.854;2022-12-29T14:48:42;8.23;;;1.10;;
75035;SDS011;64247;51.540;5.854;2022-12-29T14:50:44;7.80;;;1.95;;
75035;SDS011;64247;51.540;5.854;2022-12-29T14:52:49;3.58;;;1.25;;
75035;SDS011;64247;51.540;5.854;2022-12-29T14:54:56;5.65;;;1.17;;
75035;SDS011;64247;51.540;5.854;2022-12-29T15:00:01;7.38;;;1.90;;
75035;SDS011;64247;51.540;5.854;2022-12-29T15:02:31;5.63;;;1.40;;
75035;SDS011;64247;51.540;5.854;2022-12-29T15:04:38;5.28;;;1.05;;
75035;SDS011;64247;51.540;5.854;2022-12-29T15:06:40;7.00;;;2.30;;
75035;SDS011;64247;51.540;5.854;2022-12-29T15:11:47;5.13;;;0.90;;
75035;SDS011;64247;51.540;5.854;2022-12-29T15:13:55;3.70;;;0.93;;
75035;SDS011;64247;51.540;5.854;2022-12-29T15:15:56;6.63;;;1.98;;
75035;SDS011;64247;51.540;5.854;2022-12-29T15:17:57;2.05;;;0.95;;
75035;SDS011;64247;51.540;5.854;2022-12-29T15:22:46;3.33;;;1.00;;
75035;SDS011;64247;51.540;5.854;2022-12-29T15:24:54;6.53;;;1.52;;
75035;SDS011;64247;51.540;5.854;2022-12-29T15:26:57;6.32;;;1.42;;
75035;SDS011;64247;51.540;5.854;2022-12-29T15:29:04;2.70;;;1.10;;
75035;SDS011;64247;51.540;5.854;2022-12-29T15:31:09;7.20;;;1.55;;
75035;SDS011;64247;51.540;5.854;2022-12-29T15:33:21;4.45;;;1.15;;
75035;SDS011;64247;51.540;5.854;2022-12-29T15:35:28;6.63;;;1.30;;
75035;SDS011;64247;51.540;5.854;2022-12-29T15:37:37;9.20;;;1.80;;